sensor_id;sensor_type;location;lat;lon;timestamp;temperature;humidity
17007;DHT22;8620;51.168;4.154;2023-02-20T07:35:03;8.40;99.90
17007;DHT22;8620;51.168;4.154;2023-02-20T07:37:30;8.40;99.90
17007;DHT22;8620;51.168;4.154;2023-02-20T07:40:23;8.70;99.90
17007;DHT22;8620;51.168;4.154;2023-02-20T07:42:53;8.80;99.90
17007;DHT22;8620;51.168;4.154;2023-02-20T07:45:20;8.50;99.90
17007;DHT22;8620;51.168;4.154;2023-02-20T07:47:46;8.40;99.90
17007;DHT22;8620;51.168;4.154;2023-02-20T07:50:14;8.40;99.90
17007;DHT22;8620;51.168;4.154;2023-02-20T07:52:41;8.40;99.90
17007;DHT22;8620;51.168;4.154;2023-02-20T07:55:27;8.40;99.90
17007;DHT22;8620;51.168;4.154;2023-02-20T07:57:53;8.50;99.90
17007;DHT22;8620;51.168;4.154;2023-02-20T08:00:25;8.60;99.90
17007;DHT22;8620;51.168;4.154;2023-02-20T08:03:11;8.60;99.90
17007;DHT22;8620;51.168;4.154;2023-02-20T08:05:37;8.50;99.90
17007;DHT22;8620;51.168;4.154;2023-02-20T08:08:08;8.60;99.90
17007;DHT22;8620;51.168;4.154;2023-02-20T08:10:52;8.50;99.90
17007;DHT22;8620;51.168;4.154;2023-02-20T08:13:25;8.50;99.90
17007;DHT22;8620;51.168;4.154;2023-02-20T08:16:13;8.60;99.90
17007;DHT22;8620;51.168;4.154;2023-02-20T08:19:17;8.80;99.90
17007;DHT22;8620;51.168;4.154;2023-02-20T08:21:48;8.70;99.90
17007;DHT22;8620;51.168;4.154;2023-02-20T08:24:14;8.80;99.90
17007;DHT22;8620;51.168;4.154;2023-02-20T08:26:48;8.70;99.90
17007;DHT22;8620;51.168;4.154;2023-02-20T08:29:23;8.60;99.90
17007;DHT22;8620;51.168;4.154;2023-02-20T08:34:55;8.70;99.90
17007;DHT22;8620;51.168;4.154;2023-02-20T08:40:37;8.70;99.90
17007;DHT22;8620;51.168;4.154;2023-02-20T08:43:32;8.60;99.90
17007;DHT22;8620;51.168;4.154;2023-02-20T08:46:19;8.60;99.90
17007;DHT22;8620;51.168;4.154;2023-02-20T08:52:43;8.70;99.90
17007;DHT22;8620;51.168;4.154;2023-02-20T08:55:28;8.80;99.90
17007;DHT22;8620;51.168;4.154;2023-02-20T08:57:57;9.00;99.90
17007;DHT22;8620;51.168;4.154;2023-02-20T09:00:31;9.10;99.90
17007;DHT22;8620;51.168;4.154;2023-02-20T09:03:03;9.00;99.90
17007;DHT22;8620;51.168;4.154;2023-02-20T09:06:02;8.80;99.90
17007;DHT22;8620;51.168;4.154;2023-02-20T09:08:40;8.70;99.90
17007;DHT22;8620;51.168;4.154;2023-02-20T09:11:15;8.80;99.90
17007;DHT22;8620;51.168;4.154;2023-02-20T09:14:15;8.80;99.90
17007;DHT22;8620;51.168;4.154;2023-02-20T09:17:02;9.00;99.90
17007;DHT22;8620;51.168;4.154;2023-02-20T09:19:28;9.10;99.90
17007;DHT22;8620;51.168;4.154;2023-02-20T09:21:55;9.00;99.90
17007;DHT22;8620;51.168;4.154;2023-02-20T09:24:26;9.30;99.90
17007;DHT22;8620;51.168;4.154;2023-02-20T09:27:12;9.10;99.90
17007;DHT22;8620;51.168;4.154;2023-02-20T09:29:46;9.20;99.90
17007;DHT22;8620;51.168;4.154;2023-02-20T09:32:50;9.10;99.90
17007;DHT22;8620;51.168;4.154;2023-02-20T09:35:45;9.20;99.90
17007;DHT22;8620;51.168;4.154;2023-02-20T09:38:23;9.20;99.90
17007;DHT22;8620;51.168;4.154;2023-02-20T09:41:24;9.30;99.90
17007;DHT22;8620;51.168;4.154;2023-02-20T09:44:09;9.30;99.90
17007;DHT22;8620;51.168;4.154;2023-02-20T09:46:56;9.20;99.90
17007;DHT22;8620;51.168;4.154;2023-02-20T09:49:31;9.20;99.90
17007;DHT22;8620;51.168;4.154;2023-02-20T09:52:05;9.20;99.90
17007;DHT22;8620;51.168;4.154;2023-02-20T09:54:40;9.20;99.90
17007;DHT22;8620;51.168;4.154;2023-02-20T09:57:18;9.40;99.90
17007;DHT22;8620;51.168;4.154;2023-02-20T10:00:03;9.30;99.90
17007;DHT22;8620;51.168;4.154;2023-02-20T10:05:48;9.50;99.90
17007;DHT22;8620;51.168;4.154;2023-02-20T10:08:25;9.60;99.90
17007;DHT22;8620;51.168;4.154;2023-02-20T10:11:57;9.30;99.90
17007;DHT22;8620;51.168;4.154;2023-02-20T10:15:37;9.20;99.90
17007;DHT22;8620;51.168;4.154;2023-02-20T10:18:05;9.20;99.90
17007;DHT22;8620;51.168;4.154;2023-02-20T10:33:42;9.00;99.90
17007;DHT22;8620;51.168;4.154;2023-02-20T10:36:18;9.30;99.90
17007;DHT22;8620;51.168;4.154;2023-02-20T10:56:26;9.80;99.90
17007;DHT22;8620;51.168;4.154;2023-02-20T10:59:21;9.70;99.90
17007;DHT22;8620;51.168;4.154;2023-02-20T11:02:00;9.80;99.90
17007;DHT22;8620;51.168;4.154;2023-02-20T11:04:37;9.70;99.90
17007;DHT22;8620;51.168;4.154;2023-02-20T11:07:48;9.80;99.90
17007;DHT22;8620;51.168;4.154;2023-02-20T11:10:14;9.80;99.90
17007;DHT22;8620;51.168;4.154;2023-02-20T11:12:40;9.80;99.90
17007;DHT22;8620;51.168;4.154;2023-02-20T11:15:19;9.70;99.90
17007;DHT22;8620;51.168;4.154;2023-02-20T11:17:55;9.70;99.90
17007;DHT22;8620;51.168;4.154;2023-02-20T11:26:25;10.10;99.90
17007;DHT22;8620;51.168;4.154;2023-02-20T11:29:29;10.00;99.90
17007;DHT22;8620;51.168;4.154;2023-02-20T11:32:37;9.60;99.90
17007;DHT22;8620;51.168;4.154;2023-02-20T11:35:40;9.70;99.90
17007;DHT22;8620;51.168;4.154;2023-02-20T11:44:03;9.60;99.90
17007;DHT22;8620;51.168;4.154;2023-02-20T11:47:16;9.80;99.90
17007;DHT22;8620;51.168;4.154;2023-02-20T11:50:09;9.70;99.90
17007;DHT22;8620;51.168;4.154;2023-02-20T11:55:49;10.10;99.90
17007;DHT22;8620;51.168;4.154;2023-02-20T12:02:35;10.00;99.90
17007;DHT22;8620;51.168;4.154;2023-02-20T12:09:10;10.30;99.90
17007;DHT22;8620;51.168;4.154;2023-02-20T12:12:22;10.20;99.90
17007;DHT22;8620;51.168;4.154;2023-02-20T12:15:24;10.20;99.90
17007;DHT22;8620;51.168;4.154;2023-02-20T12:31:42;10.00;99.90
17007;DHT22;8620;51.168;4.154;2023-02-20T12:46:28;10.10;99.90
17007;DHT22;8620;51.168;4.154;2023-02-20T12:58:03;10.20;99.90
17007;DHT22;8620;51.168;4.154;2023-02-20T13:04:40;10.30;99.90
17007;DHT22;8620;51.168;4.154;2023-02-20T13:10:59;10.40;99.90
17007;DHT22;8620;51.168;4.154;2023-02-20T13:22:38;10.40;99.90
17007;DHT22;8620;51.168;4.154;2023-02-20T13:25:37;10.40;99.90
17007;DHT22;8620;51.168;4.154;2023-02-20T13:48:42;10.50;99.90
17007;DHT22;8620;51.168;4.154;2023-02-20T13:54:15;10.80;99.90
17007;DHT22;8620;51.168;4.154;2023-02-20T13:56:58;10.50;99.90
17007;DHT22;8620;51.168;4.154;2023-02-20T13:59:30;10.50;99.90
17007;DHT22;8620;51.168;4.154;2023-02-20T14:02:17;10.70;99.90
17007;DHT22;8620;51.168;4.154;2023-02-20T14:05:33;10.70;99.90
17007;DHT22;8620;51.168;4.154;2023-02-20T14:09:05;10.70;99.90
17007;DHT22;8620;51.168;4.154;2023-02-20T14:14:55;10.70;99.90
17007;DHT22;8620;51.168;4.154;2023-02-20T14:17:28;10.70;99.90
17007;DHT22;8620;51.168;4.154;2023-02-20T14:20:23;10.60;99.90
17007;DHT22;8620;51.168;4.154;2023-02-20T14:23:27;10.60;99.90
17007;DHT22;8620;51.168;4.154;2023-02-20T14:26:02;10.70;99.90
17007;DHT22;8620;51.168;4.154;2023-02-20T14:28:59;10.80;99.90
17007;DHT22;8620;51.168;4.154;2023-02-20T14:31:32;10.70;99.90
17007;DHT22;8620;51.168;4.154;2023-02-20T14:41:16;10.80;99.90
17007;DHT22;8620;51.168;4.154;2023-02-20T14:47:26;10.70;99.90
17007;DHT22;8620;51.168;4.154;2023-02-20T14:53:38;10.80;99.90
17007;DHT22;8620;51.168;4.154;2023-02-20T14:56:38;10.80;99.90
17007;DHT22;8620;51.168;4.154;2023-02-20T15:05:50;10.50;99.90
17007;DHT22;8620;51.168;4.154;2023-02-20T15:11:10;10.50;99.90
17007;DHT22;8620;51.168;4.154;2023-02-20T15:14:03;10.60;99.90
17007;DHT22;8620;51.168;4.154;2023-02-20T15:23:36;10.70;99.90
17007;DHT22;8620;51.168;4.154;2023-02-20T15:26:27;10.70;99.90
17007;DHT22;8620;51.168;4.154;2023-02-20T15:29:26;10.70;99.90
17007;DHT22;8620;51.168;4.154;2023-02-20T15:35:39;10.40;99.90
17007;DHT22;8620;51.168;4.154;2023-02-20T15:38:32;10.40;99.90
17007;DHT22;8620;51.168;4.154;2023-02-20T15:41:46;10.30;99.90
17007;DHT22;8620;51.168;4.154;2023-02-20T15:44:53;10.40;99.90
17007;DHT22;8620;51.168;4.154;2023-02-20T15:47:37;10.50;99.90
17007;DHT22;8620;51.168;4.154;2023-02-20T15:53:35;10.50;99.90
17007;DHT22;8620;51.168;4.154;2023-02-20T15:56:21;10.40;99.90
17007;DHT22;8620;51.168;4.154;2023-02-20T15:59:07;10.40;99.90
17007;DHT22;8620;51.168;4.154;2023-02-20T16:02:15;10.60;99.90
17007;DHT22;8620;51.168;4.154;2023-02-20T16:05:13;10.40;99.90
17007;DHT22;8620;51.168;4.154;2023-02-20T16:08:00;10.40;99.90
17007;DHT22;8620;51.168;4.154;2023-02-20T16:11:01;10.30;99.90
17007;DHT22;8620;51.168;4.154;2023-02-20T16:17:43;10.40;99.90
17007;DHT22;8620;51.168;4.154;2023-02-20T16:20:41;10.40;99.90
17007;DHT22;8620;51.168;4.154;2023-02-20T16:26:58;10.20;99.90
17007;DHT22;8620;51.168;4.154;2023-02-20T16:33:00;10.50;99.90
17007;DHT22;8620;51.168;4.154;2023-02-20T16:36:15;10.30;99.90
17007;DHT22;8620;51.168;4.154;2023-02-20T16:39:21;10.40;99.90
17007;DHT22;8620;51.168;4.154;2023-02-20T16:42:23;10.30;99.90
17007;DHT22;8620;51.168;4.154;2023-02-20T16:48:31;10.30;99.90
17007;DHT22;8620;51.168;4.154;2023-02-20T16:51:33;10.30;99.90
17007;DHT22;8620;51.168;4.154;2023-02-20T16:57:57;10.10;99.90
17007;DHT22;8620;51.168;4.154;2023-02-20T17:01:01;10.10;99.90
17007;DHT22;8620;51.168;4.154;2023-02-20T17:04:09;10.30;99.90
17007;DHT22;8620;51.168;4.154;2023-02-20T17:07:19;10.10;99.90
17007;DHT22;8620;51.168;4.154;2023-02-20T17:13:31;10.00;99.90
17007;DHT22;8620;51.168;4.154;2023-02-20T17:16:37;10.00;99.90
17007;DHT22;8620;51.168;4.154;2023-02-20T17:23:00;10.00;99.90
17007;DHT22;8620;51.168;4.154;2023-02-20T17:26:05;10.00;99.90
17007;DHT22;8620;51.168;4.154;2023-02-20T17:28:40;10.10;99.90
17007;DHT22;8620;51.168;4.154;2023-02-20T17:31:41;10.00;99.90
17007;DHT22;8620;51.168;4.154;2023-02-20T17:34:12;10.00;99.90
17007;DHT22;8620;51.168;4.154;2023-02-20T17:37:12;10.30;99.90
17007;DHT22;8620;51.168;4.154;2023-02-20T17:40:14;10.30;99.90
17007;DHT22;8620;51.168;4.154;2023-02-20T17:47:00;10.20;99.90
17007;DHT22;8620;51.168;4.154;2023-02-20T17:49:51;10.10;99.90
17007;DHT22;8620;51.168;4.154;2023-02-20T17:52:23;9.90;99.90
17007;DHT22;8620;51.168;4.154;2023-02-20T17:55:30;9.90;99.90
17007;DHT22;8620;51.168;4.154;2023-02-20T17:58:28;10.00;99.90
17007;DHT22;8620;51.168;4.154;2023-02-20T18:01:15;9.90;99.90
17007;DHT22;8620;51.168;4.154;2023-02-20T18:04:17;9.90;99.90
17007;DHT22;8620;51.168;4.154;2023-02-20T18:07:38;9.90;99.90
17007;DHT22;8620;51.168;4.154;2023-02-20T18:10:26;9.90;99.90
17007;DHT22;8620;51.168;4.154;2023-02-20T18:13:03;10.10;99.90
17007;DHT22;8620;51.168;4.154;2023-02-20T18:18:27;9.90;99.90
17007;DHT22;8620;51.168;4.154;2023-02-20T18:20:53;10.00;99.90
17007;DHT22;8620;51.168;4.154;2023-02-20T18:23:22;10.10;99.90
17007;DHT22;8620;51.168;4.154;2023-02-20T18:26:07;10.10;99.90
17007;DHT22;8620;51.168;4.154;2023-02-20T18:28:41;10.00;99.90
17007;DHT22;8620;51.168;4.154;2023-02-20T18:31:10;9.90;99.90
17007;DHT22;8620;51.168;4.154;2023-02-20T18:33:39;9.80;99.90
17007;DHT22;8620;51.168;4.154;2023-02-20T18:36:33;9.80;99.90
17007;DHT22;8620;51.168;4.154;2023-02-20T18:39:43;9.90;99.90
17007;DHT22;8620;51.168;4.154;2023-02-20T18:42:57;9.80;99.90
17007;DHT22;8620;51.168;4.154;2023-02-20T18:46:03;9.80;99.90
17007;DHT22;8620;51.168;4.154;2023-02-20T18:48:58;9.80;99.90
17007;DHT22;8620;51.168;4.154;2023-02-20T18:52:07;9.90;99.90
17007;DHT22;8620;51.168;4.154;2023-02-20T18:55:14;9.80;99.90
17007;DHT22;8620;51.168;4.154;2023-02-20T18:58:23;9.80;99.90
17007;DHT22;8620;51.168;4.154;2023-02-20T19:01:24;9.80;99.90
17007;DHT22;8620;51.168;4.154;2023-02-20T19:04:09;9.80;99.90
17007;DHT22;8620;51.168;4.154;2023-02-20T19:07:02;9.80;99.90
17007;DHT22;8620;51.168;4.154;2023-02-20T19:09:57;9.80;99.90
17007;DHT22;8620;51.168;4.154;2023-02-20T19:12:41;9.80;99.90
17007;DHT22;8620;51.168;4.154;2023-02-20T19:15:28;9.90;99.90
17007;DHT22;8620;51.168;4.154;2023-02-20T19:18:16;10.10;99.90
17007;DHT22;8620;51.168;4.154;2023-02-20T19:21:00;10.00;99.90
17007;DHT22;8620;51.168;4.154;2023-02-20T19:27:13;9.80;99.90
17007;DHT22;8620;51.168;4.154;2023-02-20T19:29:51;9.70;99.90
17007;DHT22;8620;51.168;4.154;2023-02-20T19:32:35;9.70;99.90
17007;DHT22;8620;51.168;4.154;2023-02-20T19:38:57;9.70;99.90
17007;DHT22;8620;51.168;4.154;2023-02-20T19:45:26;9.90;99.90
17007;DHT22;8620;51.168;4.154;2023-02-20T19:48:53;9.90;99.90
17007;DHT22;8620;51.168;4.154;2023-02-20T19:55:10;9.50;99.90
17007;DHT22;8620;51.168;4.154;2023-02-20T19:58:27;9.50;99.90
17007;DHT22;8620;51.168;4.154;2023-02-20T20:01:17;9.60;99.90
17007;DHT22;8620;51.168;4.154;2023-02-20T20:07:15;9.50;99.90
17007;DHT22;8620;51.168;4.154;2023-02-20T20:09:55;9.50;99.90
17007;DHT22;8620;51.168;4.154;2023-02-20T20:12:45;9.50;99.90
17007;DHT22;8620;51.168;4.154;2023-02-20T20:19:11;9.70;99.90
17007;DHT22;8620;51.168;4.154;2023-02-20T20:21:59;9.70;99.90
17007;DHT22;8620;51.168;4.154;2023-02-20T20:25:13;9.50;99.90
17007;DHT22;8620;51.168;4.154;2023-02-20T20:28:17;9.30;99.90
17007;DHT22;8620;51.168;4.154;2023-02-20T20:31:36;9.20;99.90
17007;DHT22;8620;51.168;4.154;2023-02-20T20:34:29;9.20;99.90
17007;DHT22;8620;51.168;4.154;2023-02-20T20:40:47;9.60;99.90
17007;DHT22;8620;51.168;4.154;2023-02-20T20:43:33;9.50;99.90
17007;DHT22;8620;51.168;4.154;2023-02-20T20:49:51;9.20;99.90
17007;DHT22;8620;51.168;4.154;2023-02-20T20:52:42;9.30;99.90
